EKAH

Aarhus Airport

Aarhus, Denmark
METAR EKAH 171620Z AUTO 24006KT 210V280 9999NDV BKN057/// 22/11 Q1016
Observed Flight Rules
Aug-17 @ 16:20 UTC (33 minutes ago)
Wind Clouds
240° at 6 knots
  • Broken at 5,700' AGL
Temperatures Readings
Current 22°C / 72°F
Dewpoint 11°C / 52°F
Humidity 50%
Altimeter 30" Hg
Pressure 1016 hPa
Elevation 25
METAR EKAH 171620Z AUTO 24006KT 210V280 9999NDV BKN057/// 22/11 Q1016
Observed Flight Rules
Aug-17 @ 16:20 UTC
(33 minutes ago)
Wind
240° at 6 knots
Clouds
  • Broken at 5,700' AGL
Temperature Dewpoint
22°C / 72°F 11°C / 52°F
Humidity Altimeter Pressure
50% 30" Hg 1016 hPa